This is the latest recevied weather packets stored in our database for station/object W6SNO-1. If no packets are shown the sender has not sent any weather packets the latest 10 day(s).
| Time | Temp. | Humidity | Pressure | Rain* | Wind** | Luminosity | Snow |
|---|---|---|---|---|---|---|---|
| 1777839149 | 17.22° C | 59% | 1013.2 hPa | 0 mm | - | 268 W/m² | - |
| 1777838239 | 17.22° C | 57% | 1013 hPa | 0 mm | - | 310 W/m² | - |
| 1777837936 | 17.22° C | 57% | 1013.1 hPa | 0 mm | - | 310 W/m² | - |
| 1777837329 | 17.22° C | 56% | 1013 hPa | 0 mm | - | 524 W/m² | - |
| 1777837025 | 17.22° C | 56% | 1013 hPa | 0 mm | - | 524 W/m² | - |
| 1777836721 | 17.78° C | 56% | 1013.2 hPa | 0 mm | - | 318 W/m² | - |
| 1777836417 | 17.78° C | 56% | 1013.3 hPa | 0 mm | - | 318 W/m² | - |
| 1777834292 | 16.11° C | 64% | 1013.5 hPa | 0 mm | - | 465 W/m² | - |
| 1777833987 | 16.11° C | 64% | 1013.3 hPa | 0 mm | - | 465 W/m² | - |
| 1777833684 | 16.11° C | 63% | 1013.1 hPa | 0 mm | - | 419 W/m² | - |
| 1777831868 | 15.56° C | 68% | 1013.5 hPa | 0 mm | - | 578 W/m² | - |
| 1777831565 | 15.56° C | 68% | 1013.6 hPa | 0 mm | - | 578 W/m² | - |
| 1777831263 | 15.56° C | 67% | 1013.7 hPa | 0 mm | - | 323 W/m² | - |
| 1777830959 | 15° C | 71% | 1013.7 hPa | 0 mm | - | 249 W/m² | - |
| 1777830656 | 15° C | 71% | 1013.6 hPa | 0 mm | - | 249 W/m² | - |
| 1777830353 | 15° C | 74% | 1013.5 hPa | 0 mm | - | 660 W/m² | - |
| 1777830049 | 15° C | 74% | 1013.6 hPa | 0 mm | - | 660 W/m² | - |
| 1777829744 | 13.89° C | 78% | 1013.7 hPa | 0 mm | - | 359 W/m² | - |
| 1777829441 | 13.89° C | 78% | 1013.7 hPa | 0 mm | - | 359 W/m² | - |
| 1777824592 | 13.89° C | 75% | 1013.1 hPa | 0 mm | - | 135 W/m² | - |
| 1777824289 | 13.89° C | 75% | 1013.2 hPa | 0 mm | - | 135 W/m² | - |
| 1777823378 | 13.89° C | 75% | 1012.9 hPa | 0 mm | - | 111 W/m² | - |
| 1777823076 | 13.89° C | 75% | 1012.8 hPa | 0 mm | - | 120 W/m² | - |
| 1777822774 | 13.89° C | 76% | 1013 hPa | 0 mm | - | 111 W/m² | - |
| 1777822472 | 13.89° C | 75% | 1013.2 hPa | 0 mm | - | 102 W/m² | - |
* Rain latest hour (hover to see other rain measurements)
** Current wind speed in m/s (hover to see current wind gust speed)